createdAt,value
2019-02-04T00:01:03.724Z,37.90
2019-02-04T00:03:29.885Z,37.90
2019-02-04T00:05:56.802Z,37.90
2019-02-04T00:08:22.985Z,37.80
2019-02-04T00:10:49.138Z,37.90
2019-02-04T00:13:15.300Z,37.80
2019-02-04T00:15:41.459Z,37.90
2019-02-04T00:18:07.610Z,37.90
2019-02-04T00:20:33.765Z,37.90
2019-02-04T00:23:00.271Z,37.80
2019-02-04T00:25:26.439Z,37.80
2019-02-04T00:27:52.651Z,37.80
2019-02-04T00:30:18.808Z,37.70
2019-02-04T00:32:44.972Z,37.80
2019-02-04T00:35:11.124Z,37.80
2019-02-04T00:37:37.300Z,37.70
2019-02-04T00:40:03.455Z,37.70
2019-02-04T00:42:29.811Z,37.70
2019-02-04T00:44:55.969Z,37.60
2019-02-04T00:47:22.161Z,37.70
2019-02-04T00:49:48.471Z,37.70
2019-02-04T00:52:14.619Z,38.40
2019-02-04T00:54:40.768Z,37.80
2019-02-04T00:57:06.930Z,37.80
2019-02-04T00:59:33.883Z,37.70
2019-02-04T01:02:00.042Z,37.70
2019-02-04T01:04:26.194Z,37.70
2019-02-04T01:06:52.384Z,37.70
2019-02-04T01:09:18.543Z,37.70
2019-02-04T01:11:44.700Z,37.70
2019-02-04T01:14:10.873Z,37.70
2019-02-04T01:16:37.031Z,37.50
2019-02-04T01:19:03.212Z,37.60
2019-02-04T01:21:29.381Z,37.60
2019-02-04T01:23:55.558Z,37.70
2019-02-04T01:26:21.717Z,37.60
2019-02-04T01:28:47.874Z,37.60
2019-02-04T01:31:14.041Z,37.60
2019-02-04T01:33:40.197Z,37.70
2019-02-04T01:36:06.357Z,37.70
2019-02-04T01:38:32.527Z,37.60
2019-02-04T01:40:59.897Z,37.60
2019-02-04T01:43:26.078Z,37.60
2019-02-04T01:45:52.239Z,37.60
2019-02-04T01:48:18.389Z,37.60
2019-02-04T01:50:44.536Z,37.50
2019-02-04T01:53:10.688Z,37.60
2019-02-04T01:55:36.861Z,37.60
2019-02-04T01:58:03.016Z,37.60
2019-02-04T02:00:29.195Z,37.50
2019-02-04T02:02:55.377Z,37.50
2019-02-04T02:05:21.553Z,37.70
2019-02-04T02:07:47.704Z,37.60
2019-02-04T02:10:13.896Z,37.60
2019-02-04T02:12:40.055Z,37.50
2019-02-04T02:15:06.212Z,37.60
2019-02-04T02:17:32.370Z,37.70
2019-02-04T02:19:58.524Z,37.70
2019-02-04T02:22:24.675Z,37.80
2019-02-04T02:24:50.845Z,37.80
2019-02-04T02:27:17.004Z,37.80
2019-02-04T02:29:43.917Z,37.70
2019-02-04T02:32:10.087Z,37.70
2019-02-04T02:34:36.239Z,37.70
2019-02-04T02:37:02.396Z,37.60
2019-02-04T02:39:28.589Z,37.80
2019-02-04T02:41:54.732Z,37.70
2019-02-04T02:44:20.894Z,37.70
2019-02-04T02:46:47.047Z,37.70
2019-02-04T02:49:13.201Z,37.80
2019-02-04T02:51:39.387Z,37.80
2019-02-04T02:54:05.550Z,37.60
2019-02-04T02:56:31.732Z,37.60
2019-02-04T02:58:57.894Z,37.60
2019-02-04T03:01:24.077Z,37.60
2019-02-04T03:03:50.225Z,37.70
2019-02-04T03:06:16.417Z,37.50
2019-02-04T03:08:42.569Z,37.70
2019-02-04T03:11:08.725Z,37.70
2019-02-04T03:13:35.646Z,37.60
2019-02-04T03:16:01.793Z,37.60
2019-02-04T03:18:27.985Z,37.70
2019-02-04T03:20:54.143Z,37.60
2019-02-04T03:23:20.312Z,37.70
2019-02-04T03:25:46.472Z,37.80
2019-02-04T03:28:12.633Z,37.70
2019-02-04T03:30:38.797Z,37.50
2019-02-04T03:33:04.999Z,37.80
2019-02-04T03:35:31.147Z,37.70
2019-02-04T03:37:58.120Z,37.70
2019-02-04T03:40:24.275Z,37.70
2019-02-04T03:42:50.455Z,37.70
2019-02-04T03:45:16.619Z,37.50
2019-02-04T03:47:42.960Z,37.50
2019-02-04T03:50:09.275Z,37.60
2019-02-04T03:52:35.431Z,37.60
2019-02-04T03:55:01.583Z,37.60
2019-02-04T03:57:27.750Z,37.60
2019-02-04T03:59:53.911Z,37.60
2019-02-04T04:02:20.066Z,37.70
2019-02-04T04:04:46.399Z,37.70
2019-02-04T04:07:12.552Z,37.60
2019-02-04T04:09:38.704Z,37.50
2019-02-04T04:12:04.857Z,37.60
2019-02-04T04:14:31.047Z,37.60
2019-02-04T04:16:57.199Z,37.70
2019-02-04T04:19:23.352Z,37.80
2019-02-04T04:21:49.507Z,37.80
2019-02-04T04:24:15.664Z,37.70
2019-02-04T04:26:41.815Z,37.80
2019-02-04T04:29:07.967Z,37.80
2019-02-04T04:31:34.130Z,37.60
2019-02-04T04:34:00.328Z,37.50
2019-02-04T04:36:26.485Z,37.50
2019-02-04T04:38:52.652Z,37.70
2019-02-04T04:41:18.808Z,37.60
2019-02-04T04:43:45.125Z,37.60
2019-02-04T04:46:11.284Z,38.30
2019-02-04T04:48:37.442Z,37.70
2019-02-04T04:51:03.604Z,37.70
2019-02-04T04:53:29.790Z,37.50
2019-02-04T04:55:55.949Z,37.60
2019-02-04T04:58:22.131Z,37.50
2019-02-04T05:00:48.561Z,37.50
2019-02-04T05:03:15.405Z,37.60
2019-02-04T05:05:41.553Z,37.50
2019-02-04T05:08:07.712Z,37.50
2019-02-04T05:10:33.857Z,37.60
2019-02-04T05:13:00.048Z,37.60
2019-02-04T05:15:26.203Z,37.70
2019-02-04T05:17:52.816Z,37.60
2019-02-04T05:20:18.543Z,37.50
2019-02-04T05:22:44.697Z,37.50
2019-02-04T05:25:11.624Z,37.50
2019-02-04T05:27:37.792Z,37.50
2019-02-04T05:30:03.972Z,37.50
2019-02-04T05:32:30.140Z,37.60
2019-02-04T05:34:57.521Z,37.60
2019-02-04T05:37:22.486Z,37.50
2019-02-04T05:39:49.409Z,37.50
2019-02-04T05:42:15.573Z,37.50
2019-02-04T05:44:41.737Z,37.40
2019-02-04T05:47:08.055Z,37.30
2019-02-04T05:49:34.251Z,37.40
2019-02-04T05:52:00.405Z,37.40
2019-02-04T05:54:26.561Z,37.50
2019-02-04T05:56:52.712Z,37.50
2019-02-04T05:59:18.949Z,37.40
2019-02-04T06:01:45.067Z,37.40
2019-02-04T06:04:12.708Z,37.50
2019-02-04T06:06:38.353Z,37.40
2019-02-04T06:09:04.541Z,37.40
2019-02-04T06:11:30.727Z,37.30
2019-02-04T06:13:56.896Z,37.50
2019-02-04T06:16:23.091Z,37.60
2019-02-04T06:19:00.096Z,37.50
2019-02-04T06:21:15.438Z,37.40
2019-02-04T06:23:41.608Z,37.50
2019-02-04T06:26:07.767Z,37.30
2019-02-04T06:28:33.960Z,37.40
2019-02-04T06:31:00.120Z,37.50
2019-02-04T06:33:26.284Z,37.30
2019-02-04T06:35:52.604Z,37.40
2019-02-04T06:38:18.766Z,37.30
2019-02-04T06:40:44.924Z,37.30
2019-02-04T06:43:11.083Z,37.30
2019-02-04T06:45:37.250Z,37.30
2019-02-04T06:48:03.440Z,37.30
2019-02-04T06:50:29.594Z,37.30
2019-02-04T06:52:55.744Z,37.50
2019-02-04T06:55:21.908Z,37.20
2019-02-04T06:57:48.077Z,37.30
2019-02-04T07:00:14.267Z,37.40
2019-02-04T07:02:41.212Z,37.60
2019-02-04T07:05:07.365Z,37.40
2019-02-04T07:07:33.561Z,37.50
2019-02-04T07:09:59.708Z,37.30
2019-02-04T07:12:26.048Z,37.50
2019-02-04T07:14:52.200Z,37.20
2019-02-04T07:17:18.353Z,37.30
2019-02-04T07:19:44.682Z,37.30
2019-02-04T07:22:10.848Z,37.20
2019-02-04T07:24:42.943Z,37.20
2019-02-04T07:27:03.193Z,37.20
2019-02-04T07:29:29.349Z,37.10
2019-02-04T07:31:55.520Z,37.10
2019-02-04T07:34:21.681Z,37.10
2019-02-04T07:36:47.837Z,37.20
2019-02-04T07:39:13.996Z,37.10
2019-02-04T07:41:40.149Z,37.10
2019-02-04T07:44:06.305Z,37.10
2019-02-04T07:46:32.462Z,37.00
2019-02-04T07:48:58.671Z,36.90
2019-02-04T07:51:24.835Z,37.00
2019-02-04T07:53:51.009Z,37.00
2019-02-04T07:56:17.155Z,37.10
2019-02-04T07:58:43.350Z,37.20
2019-02-04T08:01:09.508Z,37.10
2019-02-04T08:03:35.662Z,37.20
2019-02-04T08:06:01.824Z,37.10
2019-02-04T08:08:27.976Z,37.00
2019-02-04T08:10:54.132Z,37.00
2019-02-04T08:13:20.288Z,37.00
2019-02-04T08:15:46.436Z,36.90
2019-02-04T08:18:12.580Z,37.00
2019-02-04T08:20:38.733Z,37.00
2019-02-04T08:23:04.885Z,37.10
2019-02-04T08:25:31.030Z,37.10
2019-02-04T08:27:57.986Z,37.00
2019-02-04T08:30:24.165Z,37.00
2019-02-04T08:32:50.324Z,37.00
2019-02-04T08:35:16.504Z,36.90
2019-02-04T08:37:42.692Z,36.80
2019-02-04T08:40:08.845Z,36.80
2019-02-04T08:42:35.794Z,36.90
2019-02-04T08:45:01.974Z,36.80
2019-02-04T08:47:28.162Z,36.80
2019-02-04T08:49:58.363Z,36.80
2019-02-04T08:52:20.687Z,36.80
2019-02-04T08:54:47.019Z,37.10
2019-02-04T08:57:13.182Z,37.10
2019-02-04T08:59:39.337Z,37.10
2019-02-04T09:02:06.420Z,37.00
2019-02-04T09:04:32.576Z,37.00
2019-02-04T09:06:58.724Z,37.00
2019-02-04T09:09:24.952Z,37.00
2019-02-04T09:11:51.098Z,37.10
2019-02-04T09:14:17.256Z,37.10
2019-02-04T09:16:43.416Z,37.20
2019-02-04T09:19:09.590Z,37.10
2019-02-04T09:21:35.740Z,37.10
2019-02-04T09:24:01.899Z,37.20
2019-02-04T09:26:28.059Z,37.10
2019-02-04T09:28:54.251Z,37.10
2019-02-04T09:31:21.212Z,37.00
2019-02-04T09:33:47.381Z,37.00
2019-02-04T09:36:13.548Z,37.00
2019-02-04T09:38:39.713Z,37.00
2019-02-04T09:41:05.881Z,37.00
2019-02-04T09:43:32.221Z,37.00
2019-02-04T09:45:58.384Z,37.10
2019-02-04T09:48:24.703Z,37.00
2019-02-04T09:50:50.907Z,37.00
2019-02-04T09:53:17.092Z,37.10
2019-02-04T09:55:43.256Z,36.90
2019-02-04T09:58:10.173Z,37.00
2019-02-04T10:00:36.497Z,37.00
2019-02-04T10:03:02.652Z,37.10
2019-02-04T10:05:28.800Z,37.20
2019-02-04T10:07:54.960Z,37.10
2019-02-04T10:10:21.145Z,37.30
2019-02-04T10:12:47.305Z,37.20
2019-02-04T10:15:13.487Z,37.20
2019-02-04T10:17:39.796Z,37.30
2019-02-04T10:20:05.945Z,37.20
2019-02-04T10:22:32.085Z,37.20
2019-02-04T10:24:59.096Z,37.10
2019-02-04T10:27:25.245Z,37.10
2019-02-04T10:29:51.418Z,37.30
2019-02-04T10:32:17.630Z,37.10
2019-02-04T10:34:43.972Z,37.20
2019-02-04T10:37:10.148Z,37.20
2019-02-04T10:39:36.332Z,37.20
2019-02-04T10:42:02.521Z,37.20
2019-02-04T10:44:28.668Z,37.20
2019-02-04T10:46:54.870Z,37.30
2019-02-04T10:49:21.037Z,37.20
2019-02-04T10:51:47.180Z,37.30
2019-02-04T10:54:13.380Z,37.20
2019-02-04T10:56:39.587Z,37.20
2019-02-04T10:59:05.769Z,37.20
2019-02-04T11:01:31.945Z,37.10
2019-02-04T11:03:58.092Z,37.20
2019-02-04T11:06:24.253Z,37.20
2019-02-04T11:08:50.433Z,37.40
2019-02-04T11:11:16.646Z,37.20
2019-02-04T11:13:42.776Z,37.20
2019-02-04T11:16:08.965Z,37.20
2019-02-04T11:18:35.148Z,37.40
2019-02-04T11:21:01.334Z,37.30
2019-02-04T11:23:29.241Z,37.40
2019-02-04T11:25:53.830Z,37.30
2019-02-04T11:28:20.016Z,37.40
2019-02-04T11:30:46.194Z,37.30
2019-02-04T11:33:12.375Z,37.30
2019-02-04T11:35:38.680Z,37.20
2019-02-04T11:38:04.854Z,37.40
2019-02-04T11:40:31.161Z,37.40
2019-02-04T11:42:57.309Z,37.30
2019-02-04T11:45:23.560Z,37.30
2019-02-04T11:47:49.732Z,37.30
2019-02-04T11:50:15.868Z,37.40
2019-02-04T11:52:42.025Z,37.30
2019-02-04T11:55:08.188Z,37.20
2019-02-04T11:57:34.349Z,37.10
2019-02-04T12:00:00.502Z,37.00
2019-02-04T12:02:34.498Z,37.10
2019-02-04T12:04:54.167Z,36.90
2019-02-04T12:07:20.325Z,37.10
2019-02-04T12:09:46.475Z,37.10
2019-02-04T12:12:12.633Z,37.20
2019-02-04T12:14:38.846Z,37.10
2019-02-04T12:17:05.015Z,37.10
2019-02-04T12:19:31.182Z,37.10
2019-02-04T12:21:57.345Z,36.90
2019-02-04T12:24:23.538Z,36.80
2019-02-04T12:26:49.859Z,36.80
2019-02-04T12:29:16.022Z,36.90
2019-02-04T12:31:42.178Z,36.90
2019-02-04T12:34:08.335Z,36.60
2019-02-04T12:36:34.510Z,36.70
2019-02-04T12:39:01.600Z,36.60
2019-02-04T12:41:27.769Z,36.60
2019-02-04T12:43:53.925Z,36.60
2019-02-04T12:46:20.090Z,37.40
2019-02-04T12:48:48.149Z,36.60
2019-02-04T12:51:14.303Z,36.60
2019-02-04T12:53:40.465Z,36.60
2019-02-04T12:56:06.624Z,36.50
2019-02-04T12:58:32.951Z,36.40
2019-02-04T13:00:59.115Z,36.60
2019-02-04T13:03:25.306Z,36.40
2019-02-04T13:05:51.460Z,36.50
2019-02-04T13:08:18.381Z,36.60
2019-02-04T13:10:44.532Z,36.60
2019-02-04T13:13:11.479Z,36.40
2019-02-04T13:15:37.629Z,36.40
2019-02-04T13:18:03.794Z,36.50
2019-02-04T13:20:29.960Z,36.20
2019-02-04T13:22:56.150Z,36.30
2019-02-04T13:25:22.310Z,36.20
2019-02-04T13:27:48.628Z,36.10
2019-02-04T13:30:14.779Z,36.20
2019-02-04T13:32:40.927Z,36.20
2019-02-04T13:35:07.397Z,36.10
2019-02-04T13:37:33.556Z,36.00
2019-02-04T13:39:59.708Z,36.20
2019-02-04T13:42:25.900Z,36.10
2019-02-04T13:44:52.047Z,36.00
2019-02-04T13:47:18.203Z,35.90
2019-02-04T13:49:49.548Z,36.10
2019-02-04T13:52:15.712Z,36.10
2019-02-04T13:54:41.878Z,36.10
2019-02-04T13:57:08.029Z,36.10
2019-02-04T13:59:34.243Z,36.00
2019-02-04T14:02:00.401Z,36.10
2019-02-04T14:04:26.623Z,36.10
2019-02-04T14:06:56.000Z,35.90
2019-02-04T14:09:22.151Z,35.90
2019-02-04T14:11:49.524Z,36.00
2019-02-04T14:14:15.683Z,36.00
2019-02-04T14:16:41.839Z,36.10
2019-02-04T14:19:08.004Z,36.00
2019-02-04T14:21:34.161Z,36.00
2019-02-04T14:24:00.318Z,36.10
2019-02-04T14:26:28.651Z,36.10
2019-02-04T14:28:52.665Z,36.00
2019-02-04T14:31:18.832Z,36.10
2019-02-04T14:33:44.985Z,36.00
2019-02-04T14:36:11.183Z,36.00
2019-02-04T14:38:37.342Z,35.90
2019-02-04T14:41:03.501Z,35.90
2019-02-04T14:43:29.667Z,36.10
2019-02-04T14:45:55.826Z,36.00
2019-02-04T14:48:21.990Z,35.90
2019-02-04T14:50:48.155Z,35.90
2019-02-04T14:53:14.333Z,36.50
2019-02-04T14:55:40.553Z,35.90
2019-02-04T14:58:06.711Z,35.90
2019-02-04T15:00:32.869Z,36.00
2019-02-04T15:02:59.028Z,36.00
2019-02-04T15:05:25.193Z,36.00
2019-02-04T15:07:51.508Z,35.80
2019-02-04T15:10:18.444Z,35.90
2019-02-04T15:12:45.005Z,35.90
2019-02-04T15:15:11.162Z,36.00
2019-02-04T15:17:37.314Z,35.80
2019-02-04T15:20:03.481Z,35.80
2019-02-04T15:22:33.500Z,35.70
2019-02-04T15:24:56.172Z,35.70
2019-02-04T15:27:22.326Z,35.60
2019-02-04T15:29:49.465Z,35.80
2019-02-04T15:32:15.630Z,35.80
2019-02-04T15:34:41.785Z,35.80
2019-02-04T15:37:07.936Z,35.80
2019-02-04T15:39:34.084Z,35.80
2019-02-04T15:42:00.261Z,35.70
2019-02-04T15:44:26.460Z,35.80
2019-02-04T15:46:52.612Z,35.40
2019-02-04T15:49:18.795Z,35.40
2019-02-04T15:51:45.009Z,35.50
2019-02-04T15:54:11.170Z,35.50
2019-02-04T15:56:37.338Z,35.70
2019-02-04T15:59:07.471Z,36.30
2019-02-04T16:01:33.641Z,35.60
2019-02-04T16:03:59.798Z,35.60
2019-02-04T16:06:25.988Z,35.70
2019-02-04T16:08:52.144Z,35.70
2019-02-04T16:11:19.065Z,35.80
2019-02-04T16:13:45.213Z,35.80
2019-02-04T16:16:11.365Z,35.60
2019-02-04T16:18:37.688Z,35.60
2019-02-04T16:21:03.844Z,35.70
2019-02-04T16:23:30.022Z,35.50
2019-02-04T16:25:56.212Z,35.60
2019-02-04T16:28:22.372Z,35.60
2019-02-04T16:30:49.286Z,35.40
2019-02-04T16:33:15.436Z,35.40
2019-02-04T16:35:41.592Z,35.60
2019-02-04T16:38:07.764Z,35.40
2019-02-04T16:40:33.919Z,35.60
2019-02-04T16:43:00.072Z,35.40
2019-02-04T16:45:26.229Z,35.30
2019-02-04T16:47:52.382Z,35.30
2019-02-04T16:50:18.585Z,35.30
2019-02-04T16:52:44.744Z,35.50
2019-02-04T16:55:10.896Z,35.50
2019-02-04T16:57:37.817Z,35.60
2019-02-04T17:00:03.968Z,35.60
2019-02-04T17:02:30.122Z,35.50
2019-02-04T17:04:56.277Z,35.60
2019-02-04T17:07:22.465Z,35.50
2019-02-04T17:09:48.608Z,35.50
2019-02-04T17:12:14.765Z,35.20
2019-02-04T17:14:40.919Z,35.30
2019-02-04T17:17:07.091Z,35.10
2019-02-04T17:19:33.244Z,35.10
2019-02-04T17:21:59.405Z,34.90
2019-02-04T17:24:26.320Z,34.90
2019-02-04T17:26:52.509Z,34.80
2019-02-04T17:29:18.677Z,34.80
2019-02-04T17:31:44.853Z,34.70
2019-02-04T17:34:11.169Z,34.80
2019-02-04T17:36:37.341Z,34.50
2019-02-04T17:39:03.515Z,34.50
2019-02-04T17:41:29.675Z,34.40
2019-02-04T17:43:55.829Z,34.50
2019-02-04T17:46:22.025Z,34.60
2019-02-04T17:48:48.191Z,34.60
2019-02-04T17:51:14.355Z,34.40
2019-02-04T17:53:40.501Z,34.20
2019-02-04T17:56:06.662Z,34.40
2019-02-04T17:58:32.821Z,34.30
2019-02-04T18:00:59.009Z,34.20
2019-02-04T18:03:25.339Z,34.30
2019-02-04T18:05:51.531Z,34.10
2019-02-04T18:08:19.503Z,34.20
2019-02-04T18:10:45.843Z,34.10
2019-02-04T18:13:12.007Z,33.80
2019-02-04T18:15:39.094Z,34.20
2019-02-04T18:18:05.262Z,34.00
2019-02-04T18:20:31.434Z,33.80
2019-02-04T18:22:57.584Z,34.00
2019-02-04T18:25:24.571Z,33.90
2019-02-04T18:27:50.754Z,33.80
2019-02-04T18:30:16.959Z,34.10
2019-02-04T18:32:43.113Z,33.90
2019-02-04T18:35:09.277Z,34.20
2019-02-04T18:37:35.441Z,34.10
2019-02-04T18:40:01.599Z,34.00
2019-02-04T18:42:27.760Z,34.10
2019-02-04T18:44:53.912Z,34.00
2019-02-04T18:47:20.065Z,33.90
2019-02-04T18:49:46.220Z,34.80
2019-02-04T18:52:12.375Z,33.90
2019-02-04T18:54:38.565Z,33.90
2019-02-04T18:57:04.728Z,33.90
2019-02-04T18:59:30.903Z,33.90
2019-02-04T19:01:57.069Z,33.80
2019-02-04T19:04:23.372Z,33.80
2019-02-04T19:06:49.585Z,34.00
2019-02-04T19:09:15.736Z,34.00
2019-02-04T19:11:41.891Z,33.80
2019-02-04T19:14:08.056Z,33.90
2019-02-04T19:16:34.217Z,33.80
2019-02-04T19:19:00.369Z,33.80
2019-02-04T19:21:26.556Z,33.60
2019-02-04T19:23:52.700Z,33.80
2019-02-04T19:26:18.844Z,34.10
2019-02-04T19:28:44.997Z,34.00
2019-02-04T19:31:11.149Z,33.80
2019-02-04T19:33:37.294Z,33.60
2019-02-04T19:36:03.569Z,33.70
2019-02-04T19:38:29.649Z,33.80
2019-02-04T19:40:55.828Z,33.60
2019-02-04T19:43:21.987Z,33.70
2019-02-04T19:45:48.136Z,33.70
2019-02-04T19:48:19.942Z,33.40
2019-02-04T19:50:46.096Z,33.60
2019-02-04T19:53:12.272Z,33.50
2019-02-04T19:55:38.434Z,33.50
2019-02-04T19:58:04.584Z,33.50
2019-02-04T20:00:31.540Z,33.70
2019-02-04T20:02:57.862Z,33.70
2019-02-04T20:05:24.021Z,33.40
2019-02-04T20:07:50.169Z,33.40
2019-02-04T20:10:16.347Z,33.70
2019-02-04T20:12:42.509Z,33.50
2019-02-04T20:15:08.670Z,33.50
2019-02-04T20:17:34.826Z,33.40
2019-02-04T20:20:01.123Z,33.40
2019-02-04T20:22:27.206Z,33.70
2019-02-04T20:24:53.445Z,33.40
2019-02-04T20:27:27.243Z,33.50
2019-02-04T20:29:51.957Z,33.30
2019-02-04T20:32:18.177Z,33.50
2019-02-04T20:34:44.436Z,33.70
2019-02-04T20:37:11.036Z,33.60
2019-02-04T20:39:37.272Z,33.60
2019-02-04T20:42:03.469Z,33.50
2019-02-04T20:44:29.741Z,33.50
2019-02-04T20:46:55.952Z,33.30
2019-02-04T20:49:22.185Z,33.30
2019-02-04T20:51:48.404Z,33.40
2019-02-04T20:54:20.122Z,33.50
2019-02-04T20:56:40.879Z,33.40
2019-02-04T20:59:07.517Z,33.50
2019-02-04T21:01:33.744Z,33.50
2019-02-04T21:03:59.970Z,33.60
2019-02-04T21:06:26.199Z,33.60
2019-02-04T21:08:52.428Z,33.50
2019-02-04T21:11:18.652Z,33.50
2019-02-04T21:13:44.890Z,33.60
2019-02-04T21:16:11.112Z,33.70
2019-02-04T21:18:37.339Z,33.40
2019-02-04T21:21:03.564Z,33.40
2019-02-04T21:23:30.215Z,33.40
2019-02-04T21:25:56.437Z,33.30
2019-02-04T21:28:22.702Z,33.50
2019-02-04T21:30:48.964Z,33.70
2019-02-04T21:33:15.162Z,33.50
2019-02-04T21:35:41.356Z,33.60
2019-02-04T21:38:07.587Z,33.50
2019-02-04T21:40:33.800Z,33.60
2019-02-04T21:43:00.043Z,33.50
2019-02-04T21:45:26.276Z,33.40
2019-02-04T21:47:52.553Z,33.50
2019-02-04T21:50:18.772Z,33.60
2019-02-04T21:52:44.968Z,33.70
2019-02-04T21:55:11.216Z,33.60
2019-02-04T21:57:37.841Z,33.60
2019-02-04T22:00:04.991Z,33.70
2019-02-04T22:02:30.297Z,33.80
2019-02-04T22:04:56.514Z,33.80
2019-02-04T22:07:22.748Z,33.80
2019-02-04T22:09:49.014Z,33.60
2019-02-04T22:12:15.629Z,33.90
2019-02-04T22:14:41.861Z,33.80
2019-02-04T22:17:08.082Z,33.80
2019-02-04T22:19:34.309Z,33.80
2019-02-04T22:22:00.537Z,33.80
2019-02-04T22:24:26.764Z,33.90
2019-02-04T22:26:53.404Z,33.80
2019-02-04T22:29:19.642Z,33.70
2019-02-04T22:31:45.856Z,33.80
2019-02-04T22:34:12.092Z,33.70
2019-02-04T22:36:38.313Z,34.00
2019-02-04T22:39:04.543Z,33.80
2019-02-04T22:41:30.861Z,33.80
2019-02-04T22:43:57.015Z,33.80
2019-02-04T22:46:23.256Z,33.90
2019-02-04T22:48:49.468Z,33.80
2019-02-04T22:51:15.696Z,33.80
2019-02-04T22:53:41.923Z,34.00
2019-02-04T22:56:08.564Z,33.80
2019-02-04T22:58:38.072Z,34.00
2019-02-04T23:01:04.296Z,33.90
2019-02-04T23:03:30.452Z,34.00
2019-02-04T23:05:57.388Z,34.00
2019-02-04T23:08:23.795Z,34.00
2019-02-04T23:10:50.032Z,34.00
2019-02-04T23:13:16.269Z,34.00
2019-02-04T23:15:42.497Z,34.00
2019-02-04T23:18:08.720Z,34.10
2019-02-04T23:20:34.951Z,34.10
2019-02-04T23:23:01.180Z,34.10
2019-02-04T23:25:27.417Z,34.20
2019-02-04T23:27:53.636Z,34.20
2019-02-04T23:30:19.869Z,34.20
2019-02-04T23:32:46.096Z,34.30
2019-02-04T23:35:12.323Z,34.30
2019-02-04T23:37:38.554Z,34.20
2019-02-04T23:40:04.781Z,34.30
2019-02-04T23:42:31.005Z,34.20
2019-02-04T23:44:57.242Z,34.40
2019-02-04T23:47:23.483Z,34.30
2019-02-04T23:49:49.704Z,34.40
2019-02-04T23:52:15.924Z,34.40
2019-02-04T23:54:42.162Z,34.50
2019-02-04T23:57:08.384Z,34.50
2019-02-04T23:59:34.608Z,34.60
